Meadow Creek, West Virginia
Current Conditions -  °F | °C
As of 12:51 PM on Thursday 23 Oct 2014 (Local Time) from KBKW Reporting Station
Overcast Overcast  
Wind Chill: 45°   Ceiling: 2000
Heat Index: 49°   Visibility: 10mi
Dew Point: 40°   Wind: 9mph
Humidity: 71%   Direction: 310°NW
Pressure: 30.15"   Gusts: NA
Location:  37.81°N, 80.92°W
Report Text: KBKW 231651Z AUTO 31008KT 10SM BKN020 OVC027 09/04 A3015 RMK AO2 SLP215 T00940044 TSNO
Loading
Personal Weather Stations






























Interactive Weather Map
Tropical Storm Tracking
New forecast layout! Learn more

10-Day Weather Forecast

Advertisements
Track Severe Weather on mobile